createdAt,value
2023-03-13T00:01:18.272Z,100206.56
2023-03-13T00:03:45.748Z,100191.38
2023-03-13T00:06:13.360Z,100182.66
2023-03-13T00:08:40.803Z,100183.88
2023-03-13T00:11:10.340Z,100179.38
2023-03-13T00:13:37.795Z,100170.50
2023-03-13T00:16:13.020Z,100165.19
2023-03-13T00:18:48.496Z,100175.41
2023-03-13T00:21:16.746Z,100188.09
2023-03-13T00:23:44.573Z,100184.53
2023-03-13T00:26:13.957Z,100188.31
2023-03-13T00:28:41.950Z,100185.41
2023-03-13T00:31:19.793Z,100180.09
2023-03-13T00:33:52.489Z,100175.38
2023-03-13T00:36:21.732Z,100176.66
2023-03-13T00:38:49.340Z,100171.34
2023-03-13T00:41:19.001Z,100164.31
2023-03-13T00:43:47.027Z,100161.97
2023-03-13T00:46:16.704Z,100166.22
2023-03-13T00:48:44.571Z,100169.66
2023-03-13T00:51:14.896Z,100184.94
2023-03-13T00:53:42.774Z,100160.00
2023-03-13T00:56:12.266Z,100171.84
2023-03-13T00:58:42.647Z,100184.19
2023-03-13T01:01:14.820Z,100196.19
2023-03-13T01:03:44.276Z,100182.75
2023-03-13T01:06:15.053Z,100185.66
2023-03-13T01:08:42.641Z,100179.66
2023-03-13T01:11:11.132Z,100172.97
2023-03-13T01:13:38.548Z,100160.28
2023-03-13T01:16:17.509Z,100156.00
2023-03-13T01:18:47.196Z,100152.78
2023-03-13T01:21:15.242Z,100135.94
2023-03-13T01:23:42.783Z,100139.78
2023-03-13T01:26:10.899Z,100121.03
2023-03-13T01:28:38.762Z,100113.31
2023-03-13T01:31:18.909Z,100113.75
2023-03-13T01:33:46.757Z,100136.75
2023-03-13T01:36:16.547Z,100129.03
2023-03-13T01:38:44.492Z,100124.53
2023-03-13T01:41:12.707Z,100128.22
2023-03-13T01:43:40.195Z,100119.53
2023-03-13T01:46:08.199Z,100114.91
2023-03-13T01:49:05.130Z,100121.72
2023-03-13T01:51:47.268Z,100102.91
2023-03-13T01:54:28.522Z,100082.81
2023-03-13T01:57:03.532Z,100075.09
2023-03-13T01:59:33.768Z,100072.78
2023-03-13T02:02:03.121Z,100069.09
2023-03-13T02:04:35.624Z,100067.88
2023-03-13T02:07:06.242Z,100073.13
2023-03-13T02:09:35.581Z,100075.91
2023-03-13T02:12:11.617Z,100063.75
2023-03-13T02:14:42.249Z,100059.56
2023-03-13T02:17:10.304Z,100065.19
2023-03-13T02:19:46.505Z,100061.69
2023-03-13T02:22:22.838Z,100066.16
2023-03-13T02:24:52.609Z,100055.44
2023-03-13T02:27:20.097Z,100045.06
2023-03-13T02:29:48.001Z,100043.00
2023-03-13T02:32:15.953Z,100028.69
2023-03-13T02:34:44.331Z,100030.94
2023-03-13T02:37:13.844Z,100024.31
2023-03-13T02:39:47.570Z,100031.03
2023-03-13T02:42:15.946Z,100032.47
2023-03-13T02:44:44.506Z,100039.44
2023-03-13T02:47:17.642Z,100044.25
2023-03-13T02:49:44.894Z,100042.72
2023-03-13T02:52:38.753Z,100034.69
2023-03-13T02:55:10.958Z,100030.19
2023-03-13T02:57:38.296Z,100023.06
2023-03-13T03:00:07.431Z,100013.47
2023-03-13T03:02:35.138Z,100010.03
2023-03-13T03:05:02.482Z,100006.53
2023-03-13T03:07:30.093Z,100017.88
2023-03-13T03:09:57.675Z,100006.97
2023-03-13T03:12:24.952Z,99999.91
2023-03-13T03:14:52.268Z,100010.97
2023-03-13T03:17:20.543Z,100007.16
2023-03-13T03:19:47.849Z,100007.78
2023-03-13T03:22:15.457Z,99996.34
2023-03-13T03:24:42.621Z,100003.75
2023-03-13T03:27:09.867Z,99992.56
2023-03-13T03:29:43.045Z,99996.50
2023-03-13T03:32:10.389Z,100002.56
2023-03-13T03:34:38.320Z,100002.44
2023-03-13T03:37:05.682Z,100009.81
2023-03-13T03:39:32.934Z,100005.09
2023-03-13T03:42:00.848Z,100011.63
2023-03-13T03:44:28.167Z,99992.94
2023-03-13T03:46:58.539Z,100007.91
2023-03-13T03:49:27.877Z,100014.66
2023-03-13T03:51:55.375Z,100006.44
2023-03-13T03:54:29.360Z,100009.06
2023-03-13T03:56:57.126Z,99992.38
2023-03-13T03:59:24.426Z,99990.88
2023-03-13T04:02:01.597Z,99987.22
2023-03-13T04:04:30.287Z,99977.38
2023-03-13T04:07:05.276Z,99989.44
2023-03-13T04:09:33.987Z,99984.88
2023-03-13T04:12:03.137Z,99992.31
2023-03-13T04:14:34.988Z,99984.84
2023-03-13T04:17:05.216Z,99981.09
2023-03-13T04:19:33.120Z,99979.53
2023-03-13T04:22:01.131Z,99967.06
2023-03-13T04:24:28.533Z,99980.81
2023-03-13T04:26:57.287Z,99977.47
2023-03-13T04:29:25.372Z,99977.56
2023-03-13T04:32:02.551Z,99979.22
2023-03-13T04:34:59.809Z,99972.63
2023-03-13T04:37:38.168Z,99981.56
2023-03-13T04:40:25.939Z,99978.34
2023-03-13T04:43:05.605Z,99982.22
2023-03-13T04:45:33.450Z,99984.00
2023-03-13T04:48:14.790Z,99971.22
2023-03-13T04:50:54.221Z,99977.38
2023-03-13T04:53:36.788Z,99986.84
2023-03-13T04:56:41.721Z,99995.97
2023-03-13T04:59:31.643Z,99996.41
2023-03-13T05:02:07.131Z,99979.53
2023-03-13T05:04:40.632Z,99982.31
2023-03-13T05:07:24.836Z,99975.41
2023-03-13T05:09:52.072Z,99970.84
2023-03-13T05:12:38.370Z,99964.78
2023-03-13T05:15:28.276Z,99966.19
2023-03-13T05:18:11.541Z,99968.81
2023-03-13T05:20:58.765Z,99974.59
2023-03-13T05:23:52.207Z,99968.00
2023-03-13T05:26:55.073Z,99955.38
2023-03-13T05:29:35.202Z,99943.84
2023-03-13T05:32:19.783Z,99948.78
2023-03-13T05:35:04.457Z,99934.84
2023-03-13T05:38:04.510Z,99944.84
2023-03-13T05:40:47.923Z,99953.41
2023-03-13T05:43:30.682Z,99953.25
2023-03-13T05:46:04.516Z,99964.22
2023-03-13T05:48:58.479Z,99955.28
2023-03-13T05:51:29.367Z,99949.63
2023-03-13T05:54:15.790Z,99959.13
2023-03-13T05:56:54.780Z,99952.97
2023-03-13T05:59:33.837Z,99959.41
2023-03-13T06:02:25.447Z,99943.22
2023-03-13T06:04:53.214Z,99944.91
2023-03-13T06:07:20.652Z,99941.59
2023-03-13T06:09:48.580Z,99938.56
2023-03-13T06:12:15.980Z,99924.72
2023-03-13T06:14:43.350Z,99936.06
2023-03-13T06:17:23.093Z,99925.81
2023-03-13T06:19:50.378Z,99939.84
2023-03-13T06:22:18.224Z,99940.47
2023-03-13T06:24:46.889Z,99944.28
2023-03-13T06:27:14.160Z,99931.97
2023-03-13T06:29:41.655Z,99931.66
2023-03-13T06:32:09.169Z,99927.00
2023-03-13T06:34:36.874Z,99924.13
2023-03-13T06:37:04.238Z,99922.50
2023-03-13T06:39:31.463Z,99922.84
2023-03-13T06:41:58.818Z,99915.91
2023-03-13T06:44:26.295Z,99924.88
2023-03-13T06:46:53.722Z,99923.72
2023-03-13T06:49:21.113Z,99917.72
2023-03-13T06:51:48.576Z,99912.81
2023-03-13T06:54:16.020Z,99899.66
2023-03-13T06:56:43.278Z,99903.44
2023-03-13T06:59:10.734Z,99900.19
2023-03-13T07:01:37.973Z,99904.06
2023-03-13T07:04:05.260Z,99906.38
2023-03-13T07:06:32.549Z,99906.03
2023-03-13T07:08:59.832Z,99899.25
2023-03-13T07:11:27.259Z,99895.88
2023-03-13T07:14:06.483Z,99906.78
2023-03-13T07:16:41.146Z,99904.91
2023-03-13T07:19:09.195Z,99896.31
2023-03-13T07:21:36.618Z,99902.72
2023-03-13T07:24:04.217Z,99898.53
2023-03-13T07:26:31.483Z,99897.47
2023-03-13T07:28:58.835Z,99892.88
2023-03-13T07:31:26.552Z,99892.09
2023-03-13T07:33:56.577Z,99896.91
2023-03-13T07:36:24.230Z,99886.75
2023-03-13T07:38:52.624Z,99883.03
2023-03-13T07:41:20.531Z,99876.00
2023-03-13T07:43:47.818Z,99882.97
2023-03-13T07:46:18.733Z,99862.72
2023-03-13T07:48:46.394Z,99870.88
2023-03-13T07:51:16.907Z,99869.44
2023-03-13T07:53:45.175Z,99860.44
2023-03-13T07:56:14.248Z,99866.75
2023-03-13T07:58:42.270Z,99852.97
2023-03-13T08:01:11.283Z,99852.88
2023-03-13T08:03:39.351Z,99853.91
2023-03-13T08:06:12.223Z,99840.50
2023-03-13T08:08:40.040Z,99847.88
2023-03-13T08:11:18.073Z,99847.25
2023-03-13T08:13:46.176Z,99848.28
2023-03-13T08:16:18.742Z,99847.13
2023-03-13T08:18:48.788Z,99842.16
2023-03-13T08:21:16.906Z,99831.56
2023-03-13T08:23:44.224Z,99829.41
2023-03-13T08:26:14.156Z,99826.59
2023-03-13T08:28:41.973Z,99820.28
2023-03-13T08:31:14.713Z,99810.13
2023-03-13T08:33:42.885Z,99813.47
2023-03-13T08:36:20.760Z,99814.16
2023-03-13T08:38:48.197Z,99809.91
2023-03-13T08:41:21.132Z,99804.53
2023-03-13T08:43:48.528Z,99813.72
2023-03-13T08:46:18.341Z,99813.00
2023-03-13T08:48:52.527Z,99803.84
2023-03-13T08:51:21.541Z,99793.81
2023-03-13T08:53:49.421Z,99798.28
2023-03-13T08:56:20.776Z,99793.56
2023-03-13T08:58:52.806Z,99794.16
2023-03-13T09:01:23.930Z,99782.81
2023-03-13T09:03:52.743Z,99781.13
2023-03-13T09:06:20.210Z,99778.81
2023-03-13T09:08:47.714Z,99775.25
2023-03-13T09:11:19.999Z,99770.03
2023-03-13T09:13:49.949Z,99764.91
2023-03-13T09:16:24.988Z,99763.63
2023-03-13T09:18:53.170Z,99757.81
2023-03-13T09:21:25.382Z,99746.88
2023-03-13T09:23:52.625Z,99734.91
2023-03-13T09:26:23.018Z,99721.44
2023-03-13T09:28:52.306Z,99733.31
2023-03-13T09:31:22.445Z,99718.81
2023-03-13T09:33:50.428Z,99713.81
2023-03-13T09:36:21.719Z,99728.28
2023-03-13T09:38:54.931Z,99716.53
2023-03-13T09:41:49.629Z,99716.81
2023-03-13T09:44:24.009Z,99723.41
2023-03-13T09:46:54.344Z,99719.22
2023-03-13T09:49:30.917Z,99712.84
2023-03-13T09:52:11.672Z,99705.66
2023-03-13T09:54:42.700Z,99691.38
2023-03-13T09:57:25.047Z,99706.72
2023-03-13T09:59:58.259Z,99701.84
2023-03-13T10:02:32.979Z,99702.53
2023-03-13T10:05:22.555Z,99702.97
2023-03-13T10:07:50.478Z,99695.13
2023-03-13T10:10:21.735Z,99689.94
2023-03-13T10:12:52.695Z,99709.16
2023-03-13T10:15:52.268Z,99690.72
2023-03-13T10:18:23.541Z,99702.50
2023-03-13T10:20:53.933Z,99679.94
2023-03-13T10:23:40.479Z,99683.22
2023-03-13T10:26:15.843Z,99673.06
2023-03-13T10:28:43.288Z,99679.13
2023-03-13T10:31:17.814Z,99669.97
2023-03-13T10:33:46.952Z,99658.22
2023-03-13T10:36:15.305Z,99660.03
2023-03-13T10:38:53.561Z,99651.41
2023-03-13T10:41:30.359Z,99649.91
2023-03-13T10:44:15.106Z,99648.75
2023-03-13T10:46:45.064Z,99652.38
2023-03-13T10:49:19.567Z,99646.81
2023-03-13T10:51:55.446Z,99632.47
2023-03-13T10:54:27.915Z,99634.72
2023-03-13T10:57:30.673Z,99620.72
2023-03-13T10:59:58.810Z,99622.59
2023-03-13T11:02:38.444Z,99600.91
2023-03-13T11:05:37.809Z,99611.47
2023-03-13T11:08:17.249Z,99605.19
2023-03-13T11:11:05.255Z,99609.16
2023-03-13T11:13:43.796Z,99616.31
2023-03-13T11:16:20.375Z,99623.97
2023-03-13T11:19:15.464Z,99628.72
2023-03-13T11:22:24.368Z,99632.97
2023-03-13T11:25:13.543Z,99620.72
2023-03-13T11:27:58.804Z,99613.19
2023-03-13T11:30:41.225Z,99617.16
2023-03-13T11:33:24.059Z,99613.53
2023-03-13T11:36:03.062Z,99613.84
2023-03-13T11:38:37.079Z,99607.06
2023-03-13T11:41:16.469Z,99618.69
2023-03-13T11:43:55.746Z,99616.16
2023-03-13T11:46:56.803Z,99601.00
2023-03-13T11:49:34.763Z,99611.34
2023-03-13T11:52:09.018Z,99613.06
2023-03-13T11:54:45.280Z,99618.28
2023-03-13T11:57:30.596Z,99594.22
2023-03-13T12:00:06.349Z,99593.53
2023-03-13T12:02:44.843Z,99604.78
2023-03-13T12:05:17.134Z,99596.06
2023-03-13T12:07:50.180Z,99597.19
2023-03-13T12:10:28.019Z,99587.22
2023-03-13T12:13:01.665Z,99577.69
2023-03-13T12:15:38.978Z,99573.69
2023-03-13T12:18:26.808Z,99565.75
2023-03-13T12:21:01.645Z,99552.53
2023-03-13T12:23:47.663Z,99554.13
2023-03-13T12:26:20.978Z,99541.59
2023-03-13T12:29:12.719Z,99526.59
2023-03-13T12:31:45.252Z,99520.16
2023-03-13T12:34:20.277Z,99523.09
2023-03-13T12:37:08.613Z,99517.94
2023-03-13T12:39:40.381Z,99514.91
2023-03-13T12:42:40.122Z,99504.72
2023-03-13T12:45:08.941Z,99502.63
2023-03-13T12:48:07.079Z,99494.75
2023-03-13T12:51:02.296Z,99469.66
2023-03-13T12:54:00.852Z,99481.19
2023-03-13T12:56:36.355Z,99453.63
2023-03-13T12:59:07.300Z,99450.06
2023-03-13T13:01:49.906Z,99470.03
2023-03-13T13:04:26.475Z,99462.50
2023-03-13T13:07:07.654Z,99446.94
2023-03-13T13:10:00.793Z,99441.34
2023-03-13T13:12:28.034Z,99426.63
2023-03-13T13:14:57.934Z,99393.16
2023-03-13T13:17:43.330Z,99413.06
2023-03-13T13:20:37.757Z,99417.44
2023-03-13T13:23:20.177Z,99383.19
2023-03-13T13:25:48.820Z,99388.75
2023-03-13T13:28:21.793Z,99390.69
2023-03-13T13:30:50.665Z,99383.09
2023-03-13T13:33:28.121Z,99374.38
2023-03-13T13:36:28.133Z,99380.28
2023-03-13T13:38:55.725Z,99374.78
2023-03-13T13:41:26.244Z,99377.13
2023-03-13T13:44:39.908Z,99368.00
2023-03-13T13:47:23.583Z,99378.00
2023-03-13T13:50:00.174Z,99366.84
2023-03-13T13:52:41.409Z,99342.13
2023-03-13T13:55:31.972Z,99329.41
2023-03-13T13:58:04.172Z,99335.72
2023-03-13T14:00:44.698Z,99319.00
2023-03-13T14:03:24.245Z,99312.91
2023-03-13T14:05:54.899Z,99308.22
2023-03-13T14:08:30.684Z,99313.84
2023-03-13T14:11:16.869Z,99297.94
2023-03-13T14:13:44.131Z,99299.03
2023-03-13T14:16:23.052Z,99305.41
2023-03-13T14:18:52.218Z,99290.75
2023-03-13T14:21:26.516Z,99301.09
2023-03-13T14:23:53.975Z,99292.34
2023-03-13T14:26:24.311Z,99282.00
2023-03-13T14:29:07.793Z,99271.25
2023-03-13T14:31:37.764Z,99261.69
2023-03-13T14:34:07.491Z,99265.69
2023-03-13T14:36:47.913Z,99255.31
2023-03-13T14:39:21.371Z,99272.00
2023-03-13T14:41:49.677Z,99261.16
2023-03-13T14:44:29.164Z,99252.03
2023-03-13T14:46:59.058Z,99249.34
2023-03-13T14:49:29.693Z,99255.59
2023-03-13T14:52:22.909Z,99257.22
2023-03-13T14:54:58.380Z,99267.09
2023-03-13T14:57:27.514Z,99262.38
2023-03-13T14:59:56.436Z,99273.78
2023-03-13T15:02:27.616Z,99265.38
2023-03-13T15:04:59.734Z,99271.47
2023-03-13T15:07:36.696Z,99271.34
2023-03-13T15:10:21.127Z,99275.41
2023-03-13T15:12:48.785Z,99270.13
2023-03-13T15:15:16.292Z,99258.66
2023-03-13T15:17:44.039Z,99247.50
2023-03-13T15:20:13.879Z,99230.38
2023-03-13T15:22:44.979Z,99216.84
2023-03-13T15:25:16.761Z,99212.94
2023-03-13T15:27:44.055Z,99200.25
2023-03-13T15:30:20.390Z,99199.16
2023-03-13T15:32:47.950Z,99201.63
2023-03-13T15:35:23.743Z,99195.41
2023-03-13T15:37:51.205Z,99196.63
2023-03-13T15:40:19.001Z,99183.28
2023-03-13T15:42:46.348Z,99180.50
2023-03-13T15:45:13.635Z,99176.09
2023-03-13T15:47:40.952Z,99177.72
2023-03-13T15:50:13.455Z,99177.38
2023-03-13T15:52:41.533Z,99158.63
2023-03-13T15:55:11.162Z,99148.47
2023-03-13T15:57:42.908Z,99155.44
2023-03-13T16:00:22.348Z,99147.50
2023-03-13T16:02:51.758Z,99143.09
2023-03-13T16:05:19.314Z,99136.72
2023-03-13T16:07:47.653Z,99141.94
2023-03-13T16:10:20.681Z,99140.91
2023-03-13T16:12:48.906Z,99137.38
2023-03-13T16:15:16.222Z,99134.56
2023-03-13T16:17:43.566Z,99133.41
2023-03-13T16:20:20.903Z,99121.94
2023-03-13T16:22:48.184Z,99142.19
2023-03-13T16:25:16.299Z,99146.16
2023-03-13T16:27:44.274Z,99138.97
2023-03-13T16:30:21.850Z,99134.25
2023-03-13T16:32:49.333Z,99127.19
2023-03-13T16:35:17.549Z,99124.00
2023-03-13T16:37:45.309Z,99115.63
2023-03-13T16:40:17.816Z,99118.84
2023-03-13T16:42:45.260Z,99109.28
2023-03-13T16:45:14.440Z,99110.84
2023-03-13T16:47:43.415Z,99108.47
2023-03-13T16:50:32.200Z,99108.06
2023-03-13T16:52:59.656Z,99099.34
2023-03-13T16:55:31.522Z,99085.03
2023-03-13T16:57:59.159Z,99088.22
2023-03-13T17:00:30.966Z,99083.44
2023-03-13T17:02:58.662Z,99082.25
2023-03-13T17:05:26.998Z,99089.78
2023-03-13T17:07:54.383Z,99084.22
2023-03-13T17:10:27.320Z,99074.72
2023-03-13T17:12:54.669Z,99074.69
2023-03-13T17:15:22.668Z,99074.31
2023-03-13T17:17:54.265Z,99065.53
2023-03-13T17:20:24.617Z,99066.75
2023-03-13T17:22:52.504Z,99061.97
2023-03-13T17:25:20.802Z,99047.97
2023-03-13T17:27:48.574Z,99058.34
2023-03-13T17:30:27.890Z,99051.63
2023-03-13T17:32:55.349Z,99046.03
2023-03-13T17:35:23.536Z,99038.09
2023-03-13T17:37:50.886Z,99050.84
2023-03-13T17:40:22.221Z,99051.50
2023-03-13T17:42:49.892Z,99049.22
2023-03-13T17:45:17.741Z,99054.00
2023-03-13T17:47:45.341Z,99044.06
2023-03-13T17:50:22.099Z,99040.47
2023-03-13T17:52:49.739Z,99045.25
2023-03-13T17:55:17.156Z,99043.69
2023-03-13T17:57:44.656Z,99043.56
2023-03-13T18:00:19.491Z,99019.00
2023-03-13T18:02:46.993Z,99015.22
2023-03-13T18:05:14.373Z,99013.72
2023-03-13T18:07:44.163Z,99017.72
2023-03-13T18:10:23.659Z,99016.81
2023-03-13T18:12:51.716Z,99032.22
2023-03-13T18:15:20.926Z,99023.50
2023-03-13T18:17:48.437Z,99038.31
2023-03-13T18:20:21.877Z,99041.81
2023-03-13T18:22:49.365Z,99056.53
2023-03-13T18:25:17.006Z,99057.38
2023-03-13T18:27:44.331Z,99066.41
2023-03-13T18:30:21.361Z,99058.66
2023-03-13T18:32:49.260Z,99052.47
2023-03-13T18:35:17.227Z,99035.91
2023-03-13T18:37:46.441Z,99025.25
2023-03-13T18:40:19.246Z,99020.03
2023-03-13T18:42:46.821Z,99030.75
2023-03-13T18:45:17.796Z,99010.59
2023-03-13T18:47:48.477Z,99006.09
2023-03-13T18:50:18.759Z,99006.91
2023-03-13T18:52:46.649Z,99006.22
2023-03-13T18:55:17.100Z,99011.00
2023-03-13T18:57:44.435Z,99009.34
2023-03-13T19:00:23.393Z,99002.59
2023-03-13T19:02:50.865Z,99010.31
2023-03-13T19:05:19.016Z,99000.38
2023-03-13T19:07:46.946Z,99001.97
2023-03-13T19:10:24.220Z,99006.28
2023-03-13T19:12:53.076Z,99008.94
2023-03-13T19:15:21.948Z,99002.03
2023-03-13T19:17:49.293Z,99008.91
2023-03-13T19:20:19.294Z,99006.09
2023-03-13T19:22:47.129Z,99001.75
2023-03-13T19:25:17.097Z,99006.47
2023-03-13T19:27:44.928Z,99014.44
2023-03-13T19:30:20.404Z,99020.66
2023-03-13T19:32:47.802Z,99029.78
2023-03-13T19:35:18.907Z,99030.56
2023-03-13T19:37:46.671Z,99015.47
2023-03-13T19:40:25.728Z,99018.28
2023-03-13T19:42:53.063Z,99017.44
2023-03-13T19:45:21.972Z,99003.88
2023-03-13T19:47:49.536Z,99003.53
2023-03-13T19:50:22.993Z,99008.41
2023-03-13T19:52:50.349Z,98994.44
2023-03-13T19:55:17.672Z,99009.16
2023-03-13T19:57:45.370Z,98988.25
2023-03-13T20:00:25.185Z,98996.38
2023-03-13T20:02:54.989Z,98983.38
2023-03-13T20:05:23.199Z,98977.84
2023-03-13T20:07:53.304Z,98984.00
2023-03-13T20:10:21.755Z,98981.94
2023-03-13T20:12:49.286Z,98987.03
2023-03-13T20:15:16.613Z,98990.16
2023-03-13T20:17:43.894Z,98989.69
2023-03-13T20:20:13.207Z,99009.59
2023-03-13T20:22:40.828Z,99002.53
2023-03-13T20:25:08.623Z,99018.88
2023-03-13T20:27:35.918Z,99015.00
2023-03-13T20:30:03.696Z,99012.81
2023-03-13T20:32:31.209Z,99014.69
2023-03-13T20:34:59.484Z,99017.63
2023-03-13T20:37:26.774Z,99019.59
2023-03-13T20:39:54.103Z,99022.47
2023-03-13T20:42:22.795Z,99007.94
2023-03-13T20:44:50.159Z,99009.44
2023-03-13T20:47:17.629Z,99003.47
2023-03-13T20:49:45.062Z,99014.94
2023-03-13T20:52:12.434Z,98998.06
2023-03-13T20:54:39.811Z,99000.44
2023-03-13T20:57:08.609Z,99002.44
2023-03-13T20:59:36.064Z,99011.72
2023-03-13T21:02:03.587Z,99010.25
2023-03-13T21:04:30.851Z,98992.03
2023-03-13T21:07:04.502Z,99002.38
2023-03-13T21:09:33.841Z,99001.22
2023-03-13T21:12:01.893Z,98993.25
2023-03-13T21:14:29.632Z,99000.34
2023-03-13T21:16:56.916Z,98998.16
2023-03-13T21:19:24.281Z,99000.41
2023-03-13T21:21:52.704Z,99011.94
2023-03-13T21:24:20.246Z,99008.16
2023-03-13T21:26:47.680Z,99013.31
2023-03-13T21:29:15.194Z,99000.13
2023-03-13T21:31:42.543Z,98988.16
2023-03-13T21:34:10.682Z,98985.69
2023-03-13T21:36:38.612Z,98997.53
2023-03-13T21:39:08.313Z,98983.63
2023-03-13T21:41:35.821Z,98994.03
2023-03-13T21:44:03.559Z,98982.03
2023-03-13T21:46:33.344Z,98978.94
2023-03-13T21:49:01.223Z,98973.06
2023-03-13T21:51:28.550Z,98969.50
2023-03-13T21:53:57.236Z,98973.25
2023-03-13T21:56:24.558Z,98970.56
2023-03-13T21:58:51.817Z,98971.94
2023-03-13T22:01:19.213Z,98984.00
2023-03-13T22:03:46.513Z,98974.81
2023-03-13T22:06:20.845Z,98976.03
2023-03-13T22:08:48.711Z,98969.59
2023-03-13T22:11:16.148Z,98974.88
2023-03-13T22:13:43.568Z,98975.31
2023-03-13T22:16:13.904Z,98969.31
2023-03-13T22:18:43.235Z,98957.22
2023-03-13T22:21:10.677Z,98954.69
2023-03-13T22:23:38.016Z,98952.34
2023-03-13T22:26:05.662Z,98942.66
2023-03-13T22:28:32.952Z,98949.31
2023-03-13T22:31:01.723Z,98941.31
2023-03-13T22:33:28.939Z,98936.69
2023-03-13T22:35:56.262Z,98935.97
2023-03-13T22:38:23.515Z,98938.84
2023-03-13T22:40:59.341Z,98945.97
2023-03-13T22:43:27.708Z,98945.38
2023-03-13T22:45:55.851Z,98931.28
2023-03-13T22:48:23.406Z,98941.81
2023-03-13T22:51:07.282Z,98940.13
2023-03-13T22:53:36.794Z,98934.97
2023-03-13T22:56:04.623Z,98929.09
2023-03-13T22:58:33.551Z,98922.16
2023-03-13T23:01:00.983Z,98929.44
2023-03-13T23:03:28.240Z,98943.44
2023-03-13T23:05:55.603Z,98948.50
2023-03-13T23:08:23.012Z,98942.91
2023-03-13T23:10:50.537Z,98930.97
2023-03-13T23:13:17.778Z,98935.59
2023-03-13T23:15:55.603Z,98921.59
2023-03-13T23:18:27.677Z,98915.25
2023-03-13T23:20:55.133Z,98931.25
2023-03-13T23:23:22.518Z,98930.66
2023-03-13T23:25:50.013Z,98913.97
2023-03-13T23:28:17.328Z,98930.84
2023-03-13T23:30:44.590Z,98918.03
2023-03-13T23:33:11.864Z,98911.78
2023-03-13T23:35:39.209Z,98916.34
2023-03-13T23:38:06.602Z,98909.44
2023-03-13T23:40:34.211Z,98914.78
2023-03-13T23:43:02.266Z,98907.31
2023-03-13T23:45:29.499Z,98909.44
2023-03-13T23:47:56.893Z,98898.78
2023-03-13T23:50:24.577Z,98893.03
2023-03-13T23:52:51.848Z,98881.50
2023-03-13T23:55:19.178Z,98881.13
2023-03-13T23:57:49.435Z,98878.47
